Time;durP1;ratioP1;P1;durP2;ratioP2;P2;SDS_P1;SDS_P2;PMS_P1;PMS_P2;Temp;Humidity;BMP_temperature;BMP_pressure;BME280_temperature;BME280_humidity;BME280_pressure;Samples;Min_cycle;Max_cycle;Signal;HPM_P1;HPM_P2
2022/08/30 00:03:26;;;;;;;0.60;0.50;;;;;;;16.86;67.75;100484.34;4917449;29;20460;-51
2022/08/30 00:05:53;;;;;;;1.87;0.67;;;;;;;16.59;67.88;100480.34;4917337;29;20472;-50
2022/08/30 00:08:22;;;;;;;3.53;0.83;;;;;;;16.58;68.28;100483.97;4917060;29;21024;-50
2022/08/30 00:10:50;;;;;;;0.97;0.80;;;;;;;16.57;68.30;100474.16;4917366;29;20470;-50
2022/08/30 00:13:18;;;;;;;2.10;1.23;;;;;;;16.41;68.15;100483.94;4918841;29;20453;-51
2022/08/30 00:15:46;;;;;;;2.40;0.77;;;;;;;16.35;68.48;100476.22;4917020;29;20457;-51
2022/08/30 00:18:14;;;;;;;4.53;0.80;;;;;;;16.40;68.51;100472.34;4917066;29;20448;-50
2022/08/30 00:20:41;;;;;;;0.63;0.63;;;;;;;16.28;69.10;100472.94;4916728;29;20540;-50
2022/08/30 00:23:08;;;;;;;3.13;1.33;;;;;;;16.23;69.53;100478.53;4916767;29;20977;-50
2022/08/30 00:25:34;;;;;;;22.33;0.73;;;;;;;16.16;69.46;100479.75;4917024;29;20544;-50
2022/08/30 00:28:01;;;;;;;3.67;0.90;;;;;;;16.29;69.33;100472.00;4917042;29;20461;-50
2022/08/30 00:30:28;;;;;;;1.13;0.90;;;;;;;16.12;69.86;100480.00;4917238;29;20481;-50
2022/08/30 00:32:54;;;;;;;3.70;1.00;;;;;;;16.11;69.97;100489.84;4916909;29;20464;-50
2022/08/30 00:35:21;;;;;;;1.60;0.73;;;;;;;16.06;70.21;100488.34;4916638;29;20479;-50
2022/08/30 00:37:49;;;;;;;1.10;0.87;;;;;;;15.96;70.71;100487.91;4916825;29;20459;-50
2022/08/30 00:40:19;;;;;;;10.93;1.63;;;;;;;15.76;70.96;100485.28;4916686;29;20501;-51
2022/08/30 00:42:55;;;;;;;0.80;0.63;;;;;;;15.71;71.40;100485.50;4904786;29;20464;-50
2022/08/30 00:45:39;;;;;;;1.53;1.00;;;;;;;15.79;71.08;100493.22;4916618;29;20866;-50
2022/08/30 00:48:06;;;;;;;4.40;0.60;;;;;;;15.96;70.61;100493.28;4916695;29;20453;-50
2022/08/30 00:50:38;;;;;;;0.93;0.87;;;;;;;15.92;70.94;100500.59;4916343;29;20480;-50
2022/08/30 00:53:09;;;;;;;2.63;1.07;;;;;;;15.69;71.87;100499.00;4916718;29;20465;-50
2022/08/30 00:55:35;;;;;;;1.37;1.27;;;;;;;15.73;71.54;100496.16;4916514;29;20449;-51
2022/08/30 00:58:08;;;;;;;0.60;0.60;;;;;;;15.49;73.30;100501.69;4916354;29;20556;-50
2022/08/30 01:00:35;;;;;;;0.80;0.70;;;;;;;15.59;73.16;100494.97;4917152;29;20501;-50
2022/08/30 01:03:02;;;;;;;1.27;1.17;;;;;;;15.56;72.75;100508.50;4915916;29;20461;-49
2022/08/30 01:05:29;;;;;;;2.60;1.30;;;;;;;15.50;72.67;100499.88;4916398;29;20532;-49
2022/08/30 01:07:56;;;;;;;0.70;0.60;;;;;;;15.48;72.75;100499.94;4916617;29;20465;-50
2022/08/30 01:10:22;;;;;;;2.77;0.73;;;;;;;15.57;72.50;100488.81;4917086;29;20473;-50
2022/08/30 01:12:49;;;;;;;3.53;1.53;;;;;;;15.64;72.51;100492.13;4918333;29;20464;-50
2022/08/30 01:15:15;;;;;;;1.37;0.70;;;;;;;15.70;73.48;100494.50;4916156;29;21057;-50
2022/08/30 01:17:46;;;;;;;2.43;0.80;;;;;;;15.80;72.35;100495.81;4916484;29;20457;-50
2022/08/30 01:20:22;;;;;;;1.17;1.03;;;;;;;15.53;73.21;100494.38;4904474;29;20537;-50
2022/08/30 01:22:49;;;;;;;2.00;1.17;;;;;;;15.40;74.11;100491.38;4916336;29;20826;-50
2022/08/30 01:25:21;;;;;;;0.70;0.60;;;;;;;15.44;74.20;100494.78;4916168;29;20453;-49
2022/08/30 01:28:18;;;;;;;0.90;0.80;;;;;;;15.68;72.96;100494.56;4916401;29;20449;-50
2022/08/30 01:30:45;;;;;;;2.60;0.83;;;;;;;15.60;73.19;100498.53;4915228;29;20495;-49
2022/08/30 01:33:12;;;;;;;0.90;0.70;;;;;;;15.48;73.56;100493.69;4916402;29;20461;-49
2022/08/30 01:35:53;;;;;;;3.60;0.73;;;;;;;15.46;73.95;100496.44;4915957;29;20820;-49
2022/08/30 01:38:22;;;;;;;1.23;1.03;;;;;;;15.49;73.75;100493.66;4916415;29;20950;-49
2022/08/30 01:40:49;;;;;;;1.00;0.73;;;;;;;15.45;74.16;100493.84;4916334;29;20786;-50
2022/08/30 01:43:17;;;;;;;1.10;1.00;;;;;;;15.35;74.31;100490.69;4916115;29;20453;-50
2022/08/30 01:45:44;;;;;;;0.80;0.77;;;;;;;15.45;74.06;100493.84;4915992;29;20449;-50
2022/08/30 01:48:11;;;;;;;1.90;1.70;;;;;;;15.54;73.70;100505.03;4916778;29;20461;-50
2022/08/30 01:50:40;;;;;;;10.63;0.83;;;;;;;15.25;74.42;100503.66;4916118;29;20500;-50
2022/08/30 01:53:09;;;;;;;1.00;0.57;;;;;;;15.30;74.42;100508.81;4916431;29;20457;-49
2022/08/30 01:55:39;;;;;;;5.33;1.50;;;;;;;15.11;74.39;100512.31;4916241;29;20452;-49
2022/08/30 01:58:05;;;;;;;1.00;0.80;;;;;;;15.15;74.46;100506.81;4916105;29;20453;-49
2022/08/30 02:00:32;;;;;;;2.03;1.03;;;;;;;14.94;75.19;100505.91;4915671;29;20501;-50
2022/08/30 02:02:58;;;;;;;1.03;0.93;;;;;;;15.10;75.24;100510.56;4916005;29;20456;-50
2022/08/30 02:05:25;;;;;;;4.10;1.67;;;;;;;14.80;75.96;100507.41;4946586;29;20445;-50
2022/08/30 02:07:52;;;;;;;3.57;1.53;;;;;;;14.65;77.40;100499.13;4916010;29;20460;-50
2022/08/30 02:10:19;;;;;;;1.30;0.80;;;;;;;14.74;76.92;100490.72;4917385;29;20469;-50
2022/08/30 02:12:46;;;;;;;1.70;1.00;;;;;;;14.70;77.24;100495.34;4918166;29;20456;-50
2022/08/30 02:15:13;;;;;;;0.80;0.80;;;;;;;14.90;76.66;100490.94;4919415;29;20453;-50
2022/08/30 02:17:41;;;;;;;0.60;0.40;;;;;;;14.99;76.31;100503.94;4919505;29;20492;-50
2022/08/30 02:20:08;;;;;;;2.27;0.83;;;;;;;14.99;76.62;100495.91;4919376;29;20496;-50
2022/08/30 02:22:34;;;;;;;2.77;1.00;;;;;;;15.03;76.29;100498.38;4919348;29;20449;-50
2022/08/30 02:25:03;;;;;;;1.37;1.00;;;;;;;14.90;77.10;100497.16;4906935;29;20468;-51
2022/08/30 02:27:30;;;;;;;1.60;1.50;;;;;;;14.61;77.89;100490.38;4919128;29;20536;-50
2022/08/30 02:29:57;;;;;;;1.63;0.80;;;;;;;14.88;77.00;100484.78;4920217;29;20492;-50
2022/08/30 02:32:23;;;;;;;15.33;1.17;;;;;;;14.57;77.91;100483.41;4919140;29;20974;-50
2022/08/30 02:34:50;;;;;;;0.60;0.50;;;;;;;14.49;78.02;100467.66;4919000;29;20959;-50
2022/08/30 02:37:16;;;;;;;1.53;1.27;;;;;;;14.65;77.61;100469.69;4918881;29;20501;-49
2022/08/30 02:39:43;;;;;;;1.40;0.80;;;;;;;14.57;78.24;100485.22;4918761;29;20523;-50
2022/08/30 02:42:09;;;;;;;6.00;1.07;;;;;;;14.50;78.08;100487.25;4918755;29;20467;-50
2022/08/30 02:44:36;;;;;;;1.70;0.60;;;;;;;14.36;78.85;100493.16;4919237;29;20453;-49
2022/08/30 02:47:02;;;;;;;4.17;0.90;;;;;;;14.28;79.03;100481.91;4919202;29;20459;-48
2022/08/30 02:49:29;;;;;;;4.03;0.70;;;;;;;14.20;79.33;100471.50;4918871;29;21007;-49
2022/08/30 02:52:00;;;;;;;1.37;0.83;;;;;;;14.28;79.02;100465.00;4918551;29;20461;-48
2022/08/30 02:54:27;;;;;;;1.13;0.80;;;;;;;14.42;78.61;100467.97;4918606;29;20457;-48
2022/08/30 02:56:55;;;;;;;1.13;0.67;;;;;;;14.44;79.07;100472.34;4918274;29;21070;-49
2022/08/30 02:59:21;;;;;;;7.00;0.57;;;;;;;14.38;79.32;100461.84;4918340;29;20473;-48
2022/08/30 03:01:47;;;;;;;3.50;1.07;;;;;;;14.30;79.58;100469.34;4918631;29;20460;-48
2022/08/30 03:04:14;;;;;;;3.33;1.47;;;;;;;14.30;79.64;100458.66;4918554;29;20457;-48
2022/08/30 03:06:41;;;;;;;0.60;0.43;;;;;;;14.43;79.25;100475.94;4918386;29;20475;-48
2022/08/30 03:09:07;;;;;;;1.70;0.80;;;;;;;14.07;80.25;100475.59;4918413;29;21074;-48
2022/08/30 03:11:34;;;;;;;0.93;0.83;;;;;;;14.07;80.74;100470.25;4950491;28;20816;-48
2022/08/30 03:14:00;;;;;;;0.80;0.63;;;;;;;13.96;80.45;100469.81;4918420;29;20472;-48
2022/08/30 03:16:27;;;;;;;1.33;1.17;;;;;;;14.04;80.98;100478.41;4918266;29;20453;-48
2022/08/30 03:18:53;;;;;;;1.73;1.63;;;;;;;14.08;80.31;100473.81;4918040;29;20479;-49
2022/08/30 03:21:20;;;;;;;1.30;1.00;;;;;;;13.89;80.51;100485.22;4921375;29;20496;-49
2022/08/30 03:23:46;;;;;;;2.30;0.97;;;;;;;13.85;80.96;100483.63;4919152;29;20457;-49
2022/08/30 03:26:13;;;;;;;7.90;1.33;;;;;;;13.83;81.54;100481.91;4917380;29;20460;-48
2022/08/30 03:28:41;;;;;;;5.20;1.90;;;;;;;13.91;81.41;100471.81;4918098;29;20459;-48
2022/08/30 03:31:08;;;;;;;1.27;0.90;;;;;;;13.93;80.91;100470.81;4917728;29;20464;-48
2022/08/30 03:33:35;;;;;;;3.23;0.70;;;;;;;14.00;81.39;100470.59;4917799;29;20830;-48
2022/08/30 03:36:02;;;;;;;3.63;1.07;;;;;;;14.01;80.99;100467.84;4917801;29;20453;-48
2022/08/30 03:38:29;;;;;;;4.30;0.87;;;;;;;14.14;80.71;100458.41;4917807;29;20457;-48
2022/08/30 03:40:56;;;;;;;3.17;1.17;;;;;;;13.82;81.65;100459.66;4917692;29;20501;-48
2022/08/30 03:43:24;;;;;;;1.10;0.80;;;;;;;13.80;82.07;100461.53;4917844;29;20485;-49
2022/08/30 03:45:51;;;;;;;0.70;0.70;;;;;;;13.78;81.63;100466.06;4917733;29;20457;-48
2022/08/30 03:48:17;;;;;;;1.87;1.60;;;;;;;13.73;82.07;100462.72;4917756;29;20463;-48
2022/08/30 03:50:44;;;;;;;1.50;0.90;;;;;;;13.66;81.91;100465.66;4917382;29;20477;-48
2022/08/30 03:53:10;;;;;;;0.60;0.50;;;;;;;13.68;82.17;100463.81;4917517;29;20456;-48
2022/08/30 03:55:37;;;;;;;0.63;0.40;;;;;;;13.49;82.72;100458.31;4917810;29;20465;-48
2022/08/30 03:58:03;;;;;;;13.17;1.50;;;;;;;13.56;82.45;100454.47;4917718;29;20453;-48
2022/08/30 04:00:30;;;;;;;0.97;0.70;;;;;;;13.59;82.14;100454.38;4917281;29;20501;-49
2022/08/30 04:02:56;;;;;;;1.23;1.13;;;;;;;13.72;81.70;100460.97;4917627;29;20480;-48
2022/08/30 04:05:23;;;;;;;1.10;0.83;;;;;;;13.75;81.96;100460.84;4917214;29;20446;-49
2022/08/30 04:07:49;;;;;;;1.17;1.00;;;;;;;13.60;82.81;100466.78;4917117;29;20461;-48
2022/08/30 04:10:16;;;;;;;1.67;1.10;;;;;;;13.63;82.58;100461.31;4917255;29;20507;-48
2022/08/30 04:12:42;;;;;;;3.33;1.70;;;;;;;13.70;82.30;100461.94;4918957;29;20472;-48
2022/08/30 04:15:16;;;;;;;0.93;0.80;;;;;;;13.73;82.19;100467.19;4905296;29;20453;-49
2022/08/30 04:17:43;;;;;;;1.40;1.30;;;;;;;13.50;82.53;100471.59;4917065;29;20457;-49
2022/08/30 04:20:09;;;;;;;2.73;0.97;;;;;;;13.43;83.11;100466.53;4916895;29;20507;-48
2022/08/30 04:22:36;;;;;;;1.43;1.33;;;;;;;13.38;84.04;100466.72;4916999;29;20460;-49
2022/08/30 04:25:03;;;;;;;6.33;1.43;;;;;;;13.39;84.13;100467.59;4916984;29;20460;-47
2022/08/30 04:27:31;;;;;;;0.60;0.50;;;;;;;13.55;83.48;100469.63;4917034;29;20814;-47
2022/08/30 04:29:58;;;;;;;0.80;0.50;;;;;;;13.53;83.53;100467.94;4916968;29;20520;-47
2022/08/30 04:32:25;;;;;;;3.80;1.53;;;;;;;14.10;81.79;100466.59;4916745;29;20897;-49
2022/08/30 04:34:58;;;;;;;1.43;1.00;;;;;;;13.99;80.93;100468.84;4916864;29;20460;-48
2022/08/30 04:37:25;;;;;;;0.60;0.57;;;;;;;13.84;81.71;100468.53;4916814;29;20457;-47
2022/08/30 04:39:56;;;;;;;1.70;0.83;;;;;;;13.81;82.44;100467.75;4916749;29;20568;-47
2022/08/30 04:42:23;;;;;;;12.27;0.70;;;;;;;13.70;82.69;100460.13;4916718;29;20452;-47
2022/08/30 04:44:50;;;;;;;2.03;1.93;;;;;;;13.52;83.27;100476.88;4916701;29;20459;-48
2022/08/30 04:47:17;;;;;;;1.30;1.17;;;;;;;13.56;82.79;100475.81;4916432;29;20468;-47
2022/08/30 04:49:43;;;;;;;1.27;1.13;;;;;;;13.70;82.38;100480.66;4916474;29;20480;-48
2022/08/30 04:52:10;;;;;;;2.93;1.47;;;;;;;13.53;83.33;100487.50;4917000;29;20476;-47
2022/08/30 04:54:37;;;;;;;11.50;2.80;;;;;;;13.67;83.10;100484.31;4916452;29;20828;-47
2022/08/30 04:57:04;;;;;;;0.93;0.83;;;;;;;13.48;83.30;100494.81;4916487;29;20475;-48
2022/08/30 04:59:32;;;;;;;11.53;1.67;;;;;;;13.52;83.45;100495.56;4916589;29;20534;-48
2022/08/30 05:01:59;;;;;;;22.13;1.73;;;;;;;13.38;83.65;100504.09;4916150;29;20504;-48
2022/08/30 05:04:25;;;;;;;4.37;1.13;;;;;;;13.59;83.15;100506.00;4916313;29;20452;-47
2022/08/30 05:06:52;;;;;;;1.50;1.40;;;;;;;13.57;83.36;100501.63;4916292;29;20449;-48
2022/08/30 05:09:20;;;;;;;3.23;1.20;;;;;;;13.47;83.81;100505.56;4916187;29;20483;-48
2022/08/30 05:11:47;;;;;;;1.03;0.80;;;;;;;13.57;83.47;100507.84;4917925;29;20824;-47
2022/08/30 05:14:13;;;;;;;1.37;0.80;;;;;;;13.63;83.63;100507.59;4916289;29;20464;-47
2022/08/30 05:16:40;;;;;;;1.60;1.50;;;;;;;13.86;82.99;100519.22;4916057;29;20457;-50
2022/08/30 05:19:07;;;;;;;4.10;1.00;;;;;;;14.17;81.87;100521.56;4916310;29;20499;-48
2022/08/30 05:21:33;;;;;;;16.63;1.10;;;;;;;14.54;80.37;100517.47;4916102;29;20496;-49
2022/08/30 05:24:00;;;;;;;6.43;1.03;;;;;;;15.31;77.74;100523.94;4916255;29;20464;-49
2022/08/30 05:26:32;;;;;;;0.60;0.40;;;;;;;15.79;75.34;100520.88;4916156;29;20487;-49
2022/08/30 05:28:59;;;;;;;1.33;1.23;;;;;;;16.26;73.30;100515.94;4915917;29;20473;-48
2022/08/30 05:31:34;;;;;;;8.63;1.27;;;;;;;16.51;72.71;100517.44;4916454;29;20461;-49
2022/08/30 05:34:01;;;;;;;1.13;1.03;;;;;;;16.70;71.39;100504.84;4916945;29;20448;-48
2022/08/30 05:36:30;;;;;;;1.50;1.40;;;;;;;16.87;71.19;100509.38;4916515;29;20483;-49
2022/08/30 05:38:57;;;;;;;1.20;0.97;;;;;;;17.26;70.06;100505.56;4916008;29;20990;-49
2022/08/30 05:41:25;;;;;;;1.70;1.60;;;;;;;17.36;69.41;100498.75;4916052;29;20493;-50
2022/08/30 05:43:54;;;;;;;3.40;1.40;;;;;;;17.55;68.42;100495.97;4915806;29;20468;-49
2022/08/30 05:46:20;;;;;;;1.37;1.03;;;;;;;17.69;68.16;100507.75;4916121;29;20457;-48
2022/08/30 05:48:48;;;;;;;1.23;1.10;;;;;;;17.76;68.01;100516.34;4917698;29;21022;-49
2022/08/30 05:51:17;;;;;;;0.80;0.70;;;;;;;17.64;68.71;100515.13;4919835;29;20456;-49
2022/08/30 05:53:44;;;;;;;0.90;0.77;;;;;;;17.70;68.15;100524.75;4919753;29;20464;-48
2022/08/30 05:56:14;;;;;;;0.80;0.80;;;;;;;17.65;68.73;100516.88;4919548;29;20540;-49
2022/08/30 05:58:42;;;;;;;4.23;1.10;;;;;;;17.53;69.05;100509.47;4919777;29;20461;-49
2022/08/30 06:01:39;;;;;;;1.27;1.17;;;;;;;17.30;69.70;100513.41;4919405;29;20504;-49
2022/08/30 06:04:10;;;;;;;4.33;1.33;;;;;;;17.22;70.02;100512.91;4908145;29;20718;-48
2022/08/30 06:06:38;;;;;;;7.40;1.80;;;;;;;17.23;70.05;100517.34;4919207;29;20453;-48
2022/08/30 06:09:07;;;;;;;3.97;1.70;;;;;;;17.23;70.47;100511.97;4919677;29;20491;-49
2022/08/30 06:11:34;;;;;;;4.73;1.53;;;;;;;17.22;70.79;100507.53;4921405;29;20449;-49
2022/08/30 06:14:01;;;;;;;2.30;1.60;;;;;;;17.20;70.98;100509.44;4919387;29;20460;-48
2022/08/30 06:16:28;;;;;;;2.83;1.47;;;;;;;17.36;70.89;100515.75;4919244;29;20453;-49
2022/08/30 06:18:56;;;;;;;3.00;2.33;;;;;;;17.34;71.04;100514.97;4919158;29;20540;-49
2022/08/30 06:21:26;;;;;;;3.27;1.70;;;;;;;17.33;71.21;100515.91;4919247;29;20493;-48
2022/08/30 06:23:54;;;;;;;9.27;3.07;;;;;;;17.37;71.93;100514.78;4919287;29;20457;-49
2022/08/30 06:26:21;;;;;;;0.93;0.93;;;;;;;17.60;71.35;100515.41;4919193;29;20483;-48
2022/08/30 06:28:49;;;;;;;5.60;1.20;;;;;;;17.73;70.96;100517.38;4919174;29;20483;-49
2022/08/30 06:31:18;;;;;;;4.30;2.17;;;;;;;17.98;69.96;100513.34;4918858;29;20457;-49
2022/08/30 06:33:46;;;;;;;43.87;2.87;;;;;;;17.81;69.97;100511.56;4918915;29;20463;-49
2022/08/30 06:36:15;;;;;;;9.43;1.73;;;;;;;17.93;70.19;100512.72;4919093;29;20900;-48
2022/08/30 06:38:42;;;;;;;1.67;1.20;;;;;;;18.01;69.86;100515.84;4919112;29;20461;-49
2022/08/30 06:41:14;;;;;;;9.23;2.17;;;;;;;18.55;68.19;100519.94;4918783;29;20500;-48
2022/08/30 06:43:41;;;;;;;3.20;1.93;;;;;;;18.55;67.96;100522.63;4918725;29;20936;-48
2022/08/30 06:46:18;;;;;;;1.47;1.27;;;;;;;18.46;68.19;100524.97;4918799;29;20460;-49
2022/08/30 06:48:45;;;;;;;4.60;1.63;;;;;;;18.53;68.31;100521.84;4918736;29;20477;-48
2022/08/30 06:51:18;;;;;;;2.43;1.97;;;;;;;18.85;67.90;100525.38;4918761;29;20454;-49
2022/08/30 06:53:44;;;;;;;1.97;1.37;;;;;;;18.82;67.96;100527.38;4918550;29;20452;-49
2022/08/30 06:56:11;;;;;;;4.70;1.90;;;;;;;18.87;67.35;100530.66;4918637;29;20587;-48
2022/08/30 06:58:42;;;;;;;2.60;1.10;;;;;;;19.10;67.32;100534.69;4918401;29;22234;-49
2022/08/30 07:01:18;;;;;;;2.40;2.00;;;;;;;18.94;67.21;100535.63;4917323;29;20496;-49
2022/08/30 07:03:45;;;;;;;1.40;1.03;;;;;;;18.71;68.02;100529.84;4918623;29;20508;-48
2022/08/30 07:06:13;;;;;;;12.53;2.27;;;;;;;18.99;67.81;100532.63;4918520;29;20473;-48
2022/08/30 07:08:40;;;;;;;4.33;1.73;;;;;;;19.03;67.42;100526.09;4918222;29;20461;-48
2022/08/30 07:11:07;;;;;;;2.63;2.00;;;;;;;19.57;65.59;100521.03;4919314;29;20453;-48
2022/08/30 07:13:35;;;;;;;3.93;1.80;;;;;;;19.45;65.81;100536.09;4918264;29;20453;-49
2022/08/30 07:16:09;;;;;;;0.80;0.70;;;;;;;19.51;65.48;100529.47;4918425;29;20460;-49
2022/08/30 07:18:53;;;;;;;6.37;1.13;;;;;;;19.75;64.59;100529.81;4918251;29;20459;-49
2022/08/30 07:21:26;;;;;;;1.50;0.87;;;;;;;20.16;63.38;100526.31;4918072;29;20485;-50
2022/08/30 07:23:55;;;;;;;1.47;1.37;;;;;;;20.27;62.82;100524.63;4917190;29;20463;-50
2022/08/30 07:26:25;;;;;;;4.33;1.27;;;;;;;20.38;62.76;100530.22;4918200;29;20459;-49
2022/08/30 07:28:53;;;;;;;15.33;1.53;;;;;;;20.28;62.79;100534.47;4918405;29;20484;-50
2022/08/30 07:31:23;;;;;;;2.73;0.90;;;;;;;20.53;62.01;100528.38;4918054;29;20935;-50
2022/08/30 07:33:50;;;;;;;1.93;0.70;;;;;;;20.99;60.40;100526.16;4917826;29;20947;-50
2022/08/30 07:36:17;;;;;;;2.27;1.27;;;;;;;20.89;60.49;100527.75;4917713;29;20839;-50
2022/08/30 07:38:45;;;;;;;1.17;1.07;;;;;;;20.90;60.56;100523.22;4917974;29;20477;-51
2022/08/30 07:41:26;;;;;;;4.27;1.50;;;;;;;21.15;60.19;100520.56;4917910;29;20489;-50
2022/08/30 07:43:53;;;;;;;2.23;1.40;;;;;;;21.74;59.41;100530.91;4917832;29;20454;-50
2022/08/30 07:46:20;;;;;;;0.87;0.83;;;;;;;21.73;58.44;100524.63;4919356;29;20463;-49
2022/08/30 07:48:47;;;;;;;2.40;1.20;;;;;;;21.55;58.68;100525.94;4919328;29;20481;-49
2022/08/30 07:51:17;;;;;;;7.73;1.10;;;;;;;22.01;57.92;100520.81;4918538;29;20453;-50
2022/08/30 07:53:43;;;;;;;0.70;0.57;;;;;;;22.28;57.04;100522.53;4917823;29;20463;-50
2022/08/30 07:56:10;;;;;;;3.53;1.40;;;;;;;22.12;57.68;100525.50;4917642;29;20492;-50
2022/08/30 07:58:38;;;;;;;2.10;1.37;;;;;;;22.30;57.17;100515.16;4917375;29;20959;-50
2022/08/30 08:01:07;;;;;;;1.00;0.90;;;;;;;22.61;56.65;100517.28;4917443;29;20497;-50
2022/08/30 08:03:34;;;;;;;2.20;0.80;;;;;;;22.65;55.95;100517.94;4917566;29;20453;-50
2022/08/30 08:06:03;;;;;;;1.90;1.40;;;;;;;22.89;54.80;100517.94;4917713;29;20548;-50
2022/08/30 08:08:31;;;;;;;54.60;1.40;;;;;;;22.99;54.31;100524.41;4917447;29;20483;-49
2022/08/30 08:10:57;;;;;;;6.73;2.53;;;;;;;23.18;53.83;100516.59;4917194;29;20448;-48
2022/08/30 08:13:24;;;;;;;3.30;1.63;;;;;;;22.94;53.80;100521.19;4919110;29;20457;-50
2022/08/30 08:15:54;;;;;;;8.17;1.07;;;;;;;23.03;53.75;100528.63;4917427;29;20504;-49
2022/08/30 08:18:20;;;;;;;6.00;1.67;;;;;;;22.87;53.87;100528.91;4917564;29;20461;-50
2022/08/30 08:20:47;;;;;;;6.70;1.43;;;;;;;23.08;53.48;100530.97;4917434;29;20573;-50
2022/08/30 08:23:14;;;;;;;2.13;1.60;;;;;;;23.18;53.31;100513.88;4917262;29;20463;-50
2022/08/30 08:25:41;;;;;;;1.60;1.50;;;;;;;23.34;53.60;100519.84;4917122;29;20457;-50
2022/08/30 08:28:07;;;;;;;0.70;0.53;;;;;;;23.22;53.40;100522.66;4916853;29;20468;-49
2022/08/30 08:30:36;;;;;;;2.40;1.03;;;;;;;23.35;53.36;100518.88;4916746;29;20480;-48
2022/08/30 08:33:04;;;;;;;2.90;1.13;;;;;;;23.37;53.02;100531.44;4916964;29;20449;-49
2022/08/30 08:35:31;;;;;;;14.47;1.83;;;;;;;23.55;52.85;100521.84;4917040;29;20460;-50
2022/08/30 08:37:58;;;;;;;7.90;0.80;;;;;;;23.62;52.58;100524.00;4917002;29;20948;-49
2022/08/30 08:40:25;;;;;;;9.27;1.50;;;;;;;23.78;51.88;100522.78;4916870;29;20477;-50
2022/08/30 08:43:09;;;;;;;5.80;1.63;;;;;;;23.91;51.14;100518.97;4916456;29;20497;-50
2022/08/30 08:46:04;;;;;;;16.67;1.40;;;;;;;23.72;52.09;100518.72;5012399;23;21718;-49
2022/08/30 08:48:53;;;;;;;1.83;1.53;;;;;;;24.08;50.92;100514.88;5012916;28;20449;-52
2022/08/30 08:54:41;;;;;;;21.37;1.80;;;;;;;24.09;50.51;100518.44;5000835;28;20464;-51
2022/08/30 08:57:09;;;;;;;1.00;0.80;;;;;;;24.45;49.96;100511.88;5000050;28;20538;-52
2022/08/30 08:59:43;;;;;;;2.83;1.23;;;;;;;24.34;50.42;100510.06;5000915;28;20453;-52
2022/08/30 09:02:18;;;;;;;7.70;2.07;;;;;;;24.54;49.38;100502.97;5006291;28;20495;-52
2022/08/30 09:04:45;;;;;;;1.40;1.07;;;;;;;24.62;49.26;100505.03;5004284;28;21007;-52
2022/08/30 09:07:21;;;;;;;0.83;0.70;;;;;;;24.77;48.64;100509.19;5005947;28;20450;-52
2022/08/30 09:09:47;;;;;;;1.37;1.20;;;;;;;24.92;48.37;100509.75;5006143;28;20963;-51
2022/08/30 09:12:14;;;;;;;2.40;0.80;;;;;;;25.21;47.96;100499.13;5003377;28;20955;-52
2022/08/30 09:15:18;;;;;;;1.47;1.37;;;;;;;25.27;47.84;100495.88;4999406;28;20473;-52
2022/08/30 09:18:04;;;;;;;33.57;1.73;;;;;;;25.16;47.46;100490.50;4997587;28;20457;-51
2022/08/30 09:20:48;;;;;;;1.80;0.97;;;;;;;25.43;47.36;100489.97;5001381;28;20451;-52
2022/08/30 09:23:15;;;;;;;3.90;1.63;;;;;;;25.60;46.49;100490.19;5005021;28;20835;-52
2022/08/30 09:25:53;;;;;;;21.83;1.47;;;;;;;25.69;46.75;100494.88;5005717;28;20500;-52
2022/08/30 09:28:42;;;;;;;4.43;1.03;;;;;;;25.61;45.71;100494.63;4988781;28;20445;-52
2022/08/30 09:31:17;;;;;;;4.73;1.00;;;;;;;25.55;46.42;100484.31;4999618;28;20451;-52
2022/08/30 09:34:04;;;;;;;1.27;0.90;;;;;;;25.59;46.00;100479.44;4999325;28;20536;-51
2022/08/30 09:36:40;;;;;;;1.57;1.20;;;;;;;25.66;45.11;100472.47;4989981;28;20480;-52
2022/08/30 09:39:16;;;;;;;1.20;0.90;;;;;;;25.77;45.22;100479.69;4999340;28;20445;-51
2022/08/30 09:41:48;;;;;;;1.17;0.83;;;;;;;25.74;45.03;100472.66;5002007;28;20488;-51
2022/08/30 09:44:22;;;;;;;1.60;1.00;;;;;;;26.14;44.57;100475.38;5005937;28;20477;-52
2022/08/30 09:46:56;;;;;;;16.77;0.97;;;;;;;25.92;44.10;100476.50;5006129;28;20965;-52
2022/08/30 09:49:34;;;;;;;1.87;0.80;;;;;;;25.71;44.33;100472.94;5004662;28;20445;-52
2022/08/30 09:52:00;;;;;;;1.10;1.00;;;;;;;25.89;43.46;100473.16;5004637;28;20489;-51
2022/08/30 09:54:37;;;;;;;0.70;0.70;;;;;;;25.97;43.38;100463.31;5002497;28;20487;-52
2022/08/30 09:57:29;;;;;;;6.80;1.80;;;;;;;26.45;43.11;100468.06;4998854;28;20813;-52
2022/08/30 10:00:14;;;;;;;1.20;1.10;;;;;;;26.30;42.63;100466.69;4998779;28;20789;-52
2022/08/30 10:03:13;;;;;;;1.07;0.93;;;;;;;26.61;41.97;100462.03;5000968;28;20503;-51
2022/08/30 10:05:53;;;;;;;1.60;0.90;;;;;;;26.64;41.95;100459.00;4981792;28;20887;-52
2022/08/30 10:08:41;;;;;;;0.83;0.83;;;;;;;26.83;42.23;100453.53;5005679;28;20453;-52
2022/08/30 10:11:17;;;;;;;8.13;1.57;;;;;;;26.77;41.57;100451.41;5005860;28;20972;-51
2022/08/30 10:13:52;;;;;;;3.80;1.40;;;;;;;26.95;40.91;100445.22;4988578;28;20848;-51
2022/08/30 10:16:25;;;;;;;2.53;1.30;;;;;;;26.83;40.45;100442.63;4999004;28;20953;-52
2022/08/30 10:18:55;;;;;;;21.20;1.70;;;;;;;27.13;40.86;100441.63;5001889;28;20453;-52
2022/08/30 10:21:30;;;;;;;2.53;1.20;;;;;;;26.90;40.67;100439.34;4993281;28;20458;-51
2022/08/30 10:24:01;;;;;;;4.10;1.37;;;;;;;27.34;39.69;100443.31;5004284;28;20999;-52
2022/08/30 10:26:28;;;;;;;5.53;0.90;;;;;;;27.28;40.73;100439.31;4998697;28;20445;-52
2022/08/30 10:29:01;;;;;;;2.47;0.93;;;;;;;27.16;40.31;100440.50;4999301;28;20819;-52
2022/08/30 10:31:47;;;;;;;1.37;1.20;;;;;;;27.05;41.07;100435.19;4999266;28;20875;-52
2022/08/30 10:34:19;;;;;;;102.33;2.70;;;;;;;27.11;39.05;100434.59;5000002;28;20468;-51
2022/08/30 10:37:02;;;;;;;2.73;0.93;;;;;;;27.14;39.56;100429.72;5005142;28;20457;-51
2022/08/30 10:39:34;;;;;;;3.37;1.50;;;;;;;27.33;39.96;100427.94;5008826;28;20455;-52
2022/08/30 10:42:10;;;;;;;1.33;1.23;;;;;;;26.95;39.79;100426.13;5008893;28;20494;-52
2022/08/30 10:44:43;;;;;;;0.80;0.67;;;;;;;27.25;39.92;100427.81;5004727;28;20491;-52
2022/08/30 10:47:31;;;;;;;1.20;1.00;;;;;;;27.47;39.99;100427.47;5001012;28;20988;-52
2022/08/30 10:50:19;;;;;;;4.73;1.57;;;;;;;27.32;39.58;100431.69;5002203;28;20416;-51
2022/08/30 10:53:11;;;;;;;2.30;0.90;;;;;;;27.74;39.25;100435.72;4985673;28;20926;-51
2022/08/30 10:55:54;;;;;;;4.53;1.07;;;;;;;27.33;39.30;100417.88;4999920;28;20571;-52
2022/08/30 10:58:21;;;;;;;1.77;0.73;;;;;;;27.61;39.00;100426.97;5001745;28;20828;-52
2022/08/30 11:01:12;;;;;;;6.67;1.10;;;;;;;27.49;38.87;100432.78;5006258;28;20449;-52
2022/08/30 11:03:48;;;;;;;1.13;1.03;;;;;;;27.71;38.47;100429.72;5008383;28;20500;-52
2022/08/30 11:06:18;;;;;;;1.97;1.50;;;;;;;28.07;37.91;100424.31;4994338;28;20537;-52
2022/08/30 11:08:57;;;;;;;1.17;1.00;;;;;;;27.75;38.08;100431.13;4988865;28;21331;-52
2022/08/30 11:11:55;;;;;;;1.53;1.07;;;;;;;27.57;38.16;100425.56;5003661;28;20452;-52
2022/08/30 11:14:23;;;;;;;6.13;1.20;;;;;;;27.77;38.24;100415.44;5002426;28;20465;-52
2022/08/30 11:16:53;;;;;;;17.50;1.10;;;;;;;28.03;38.07;100426.50;5008190;28;20476;-52
2022/08/30 11:19:25;;;;;;;1.33;1.23;;;;;;;27.88;37.54;100417.09;5007891;28;20460;-52
2022/08/30 11:22:23;;;;;;;1.53;1.00;;;;;;;27.94;37.18;100425.53;5003531;28;20484;-52
2022/08/30 11:25:13;;;;;;;1.23;1.13;;;;;;;28.43;37.22;100415.19;5001351;28;20465;-52
2022/08/30 11:27:57;;;;;;;1.20;1.10;;;;;;;28.67;35.77;100411.84;5001534;28;20925;-53
2022/08/30 11:30:24;;;;;;;1.00;0.90;;;;;;;28.71;35.73;100407.75;5003641;28;20449;-51
2022/08/30 11:33:01;;;;;;;9.20;1.60;;;;;;;28.30;36.24;100406.50;5008008;28;20484;-51
2022/08/30 11:35:44;;;;;;;2.70;2.37;;;;;;;28.48;35.87;100404.63;5007868;28;20468;-52
2022/08/30 11:38:26;;;;;;;0.70;0.50;;;;;;;28.92;35.74;100402.00;5004049;28;20457;-52
2022/08/30 11:40:56;;;;;;;1.70;0.80;;;;;;;28.48;35.87;100396.44;5001258;28;20471;-52
2022/08/30 11:43:43;;;;;;;1.10;0.67;;;;;;;28.59;36.15;100389.88;5003182;28;20518;-52
2022/08/30 11:46:25;;;;;;;1.23;1.13;;;;;;;28.52;35.57;100389.66;4985148;28;20423;-52